sensor_id;sensor_type;location;lat;lon;timestamp;pressure;altitude;pressure_sealevel;temperature;humidity
62978;BME280;49073;42.352;23.808;2024-03-17T00:02:44;94972.81;;;4.73;89.14
62978;BME280;49073;42.352;23.808;2024-03-17T00:05:44;94976.19;;;4.56;90.06
62978;BME280;49073;42.352;23.808;2024-03-17T00:08:45;94963.28;;;4.46;91.73
62978;BME280;49073;42.352;23.808;2024-03-17T00:11:45;94950.50;;;4.39;92.92
62978;BME280;49073;42.352;23.808;2024-03-17T00:14:47;94961.75;;;4.62;92.52
62978;BME280;49073;42.352;23.808;2024-03-17T00:17:48;94969.81;;;4.66;90.99
62978;BME280;49073;42.352;23.808;2024-03-17T00:20:49;94953.81;;;4.45;90.53
62978;BME280;49073;42.352;23.808;2024-03-17T00:23:49;94951.16;;;4.54;90.20
62978;BME280;49073;42.352;23.808;2024-03-17T00:26:50;94952.06;;;4.40;89.77
62978;BME280;49073;42.352;23.808;2024-03-17T00:29:50;94962.91;;;4.39;89.22
62978;BME280;49073;42.352;23.808;2024-03-17T00:32:52;94955.91;;;4.25;90.44
62978;BME280;49073;42.352;23.808;2024-03-17T00:35:52;94951.88;;;4.28;90.42
62978;BME280;49073;42.352;23.808;2024-03-17T00:38:53;94943.31;;;4.13;90.14
62978;BME280;49073;42.352;23.808;2024-03-17T00:41:53;94953.84;;;4.13;89.33
62978;BME280;49073;42.352;23.808;2024-03-17T00:44:54;94955.50;;;4.09;89.30
62978;BME280;49073;42.352;23.808;2024-03-17T00:47:55;94951.25;;;3.90;90.65
62978;BME280;49073;42.352;23.808;2024-03-17T00:50:56;94959.88;;;4.14;89.80
62978;BME280;49073;42.352;23.808;2024-03-17T00:53:57;94954.56;;;4.05;89.54
62978;BME280;49073;42.352;23.808;2024-03-17T00:56:58;94955.91;;;3.93;89.78
62978;BME280;49073;42.352;23.808;2024-03-17T00:59:58;94947.25;;;3.93;90.22
62978;BME280;49073;42.352;23.808;2024-03-17T01:02:59;94952.81;;;3.91;90.66
62978;BME280;49073;42.352;23.808;2024-03-17T01:05:59;94950.03;;;3.88;91.43
62978;BME280;49073;42.352;23.808;2024-03-17T01:09:00;94939.69;;;4.09;91.34
62978;BME280;49073;42.352;23.808;2024-03-17T01:12:01;94943.47;;;4.17;91.20
62978;BME280;49073;42.352;23.808;2024-03-17T01:15:08;94947.19;;;4.16;89.31
62978;BME280;49073;42.352;23.808;2024-03-17T01:18:09;94940.78;;;4.08;89.27
62978;BME280;49073;42.352;23.808;2024-03-17T01:21:10;94940.00;;;4.07;88.83
62978;BME280;49073;42.352;23.808;2024-03-17T01:24:10;94941.78;;;3.89;88.58
62978;BME280;49073;42.352;23.808;2024-03-17T01:27:11;94940.75;;;3.68;89.74
62978;BME280;49073;42.352;23.808;2024-03-17T01:30:14;94943.06;;;3.60;90.47
62978;BME280;49073;42.352;23.808;2024-03-17T01:33:15;94938.47;;;3.52;91.04
62978;BME280;49073;42.352;23.808;2024-03-17T01:36:17;94943.81;;;3.61;92.37
62978;BME280;49073;42.352;23.808;2024-03-17T01:39:18;94936.09;;;3.64;93.15
62978;BME280;49073;42.352;23.808;2024-03-17T01:42:18;94938.94;;;3.77;93.54
62978;BME280;49073;42.352;23.808;2024-03-17T01:45:30;94941.03;;;3.89;92.72
62978;BME280;49073;42.352;23.808;2024-03-17T01:48:31;94943.66;;;3.89;91.92
62978;BME280;49073;42.352;23.808;2024-03-17T01:51:32;94937.78;;;3.92;92.21
62978;BME280;49073;42.352;23.808;2024-03-17T01:54:32;94940.84;;;3.85;92.64
62978;BME280;49073;42.352;23.808;2024-03-17T01:57:33;94946.47;;;3.92;92.89
62978;BME280;49073;42.352;23.808;2024-03-17T02:00:34;94942.00;;;4.02;92.13
62978;BME280;49073;42.352;23.808;2024-03-17T02:03:36;94932.16;;;4.16;90.94
62978;BME280;49073;42.352;23.808;2024-03-17T02:06:37;94936.59;;;4.07;91.17
62978;BME280;49073;42.352;23.808;2024-03-17T02:09:37;94933.13;;;3.89;92.99
62978;BME280;49073;42.352;23.808;2024-03-17T02:12:38;94932.50;;;3.92;92.71
62978;BME280;49073;42.352;23.808;2024-03-17T02:15:38;94940.97;;;3.80;93.48
62978;BME280;49073;42.352;23.808;2024-03-17T02:18:39;94935.91;;;3.92;93.37
62978;BME280;49073;42.352;23.808;2024-03-17T02:21:39;94932.03;;;3.90;92.13
62978;BME280;49073;42.352;23.808;2024-03-17T02:24:40;94939.09;;;3.81;91.57
62978;BME280;49073;42.352;23.808;2024-03-17T02:27:40;94938.72;;;3.64;93.03
62978;BME280;49073;42.352;23.808;2024-03-17T02:30:41;94937.34;;;3.67;93.01
62978;BME280;49073;42.352;23.808;2024-03-17T02:33:43;94932.53;;;3.69;91.76
62978;BME280;49073;42.352;23.808;2024-03-17T02:36:44;94929.34;;;3.49;93.01
62978;BME280;49073;42.352;23.808;2024-03-17T02:39:44;94928.72;;;3.53;93.06
62978;BME280;49073;42.352;23.808;2024-03-17T02:42:45;94916.94;;;3.50;91.88
62978;BME280;49073;42.352;23.808;2024-03-17T02:45:46;94911.91;;;3.40;91.72
62978;BME280;49073;42.352;23.808;2024-03-17T02:48:49;94911.63;;;3.41;91.74
62978;BME280;49073;42.352;23.808;2024-03-17T02:51:50;94912.88;;;3.44;91.70
62978;BME280;49073;42.352;23.808;2024-03-17T02:54:50;94921.38;;;3.41;90.96
62978;BME280;49073;42.352;23.808;2024-03-17T02:57:53;94922.69;;;3.29;90.45
62978;BME280;49073;42.352;23.808;2024-03-17T03:00:53;94921.63;;;3.08;91.93
62978;BME280;49073;42.352;23.808;2024-03-17T03:03:54;94920.34;;;3.05;92.32
62978;BME280;49073;42.352;23.808;2024-03-17T03:06:55;94915.28;;;3.31;91.73
62978;BME280;49073;42.352;23.808;2024-03-17T03:09:55;94928.19;;;3.42;92.13
62978;BME280;49073;42.352;23.808;2024-03-17T03:12:56;94923.41;;;3.44;90.79
62978;BME280;49073;42.352;23.808;2024-03-17T03:15:56;94919.19;;;3.34;91.96
62978;BME280;49073;42.352;23.808;2024-03-17T03:18:57;94915.56;;;3.53;92.05
62978;BME280;49073;42.352;23.808;2024-03-17T03:21:58;94923.13;;;3.45;92.74
62978;BME280;49073;42.352;23.808;2024-03-17T03:24:58;94916.31;;;3.53;93.35
62978;BME280;49073;42.352;23.808;2024-03-17T03:27:59;94920.78;;;3.44;95.02
62978;BME280;49073;42.352;23.808;2024-03-17T03:30:59;94929.00;;;3.42;96.12
62978;BME280;49073;42.352;23.808;2024-03-17T03:34:00;94927.59;;;3.45;96.71
62978;BME280;49073;42.352;23.808;2024-03-17T03:37:03;94930.00;;;3.55;96.51
62978;BME280;49073;42.352;23.808;2024-03-17T03:40:08;94935.69;;;3.80;95.87
62978;BME280;49073;42.352;23.808;2024-03-17T03:43:17;94932.50;;;3.92;94.38
62978;BME280;49073;42.352;23.808;2024-03-17T03:46:18;94942.94;;;3.74;95.77
62978;BME280;49073;42.352;23.808;2024-03-17T03:49:19;94945.59;;;3.74;95.89
62978;BME280;49073;42.352;23.808;2024-03-17T03:52:20;94944.09;;;3.82;96.15
62978;BME280;49073;42.352;23.808;2024-03-17T03:55:21;94941.19;;;3.92;95.58
62978;BME280;49073;42.352;23.808;2024-03-17T03:58:22;94937.00;;;3.91;95.43
62978;BME280;49073;42.352;23.808;2024-03-17T04:01:23;94939.16;;;3.89;94.99
62978;BME280;49073;42.352;23.808;2024-03-17T04:04:23;94944.75;;;3.88;94.51
62978;BME280;49073;42.352;23.808;2024-03-17T04:07:24;94939.22;;;3.75;94.48
62978;BME280;49073;42.352;23.808;2024-03-17T04:10:24;94947.41;;;3.65;94.50
62978;BME280;49073;42.352;23.808;2024-03-17T04:13:25;94939.94;;;3.58;94.91
62978;BME280;49073;42.352;23.808;2024-03-17T04:16:26;94948.25;;;3.52;94.13
62978;BME280;49073;42.352;23.808;2024-03-17T04:19:27;94953.78;;;3.41;94.52
62978;BME280;49073;42.352;23.808;2024-03-17T04:22:28;94957.41;;;3.31;95.16
62978;BME280;49073;42.352;23.808;2024-03-17T04:25:28;94946.72;;;3.28;94.11
62978;BME280;49073;42.352;23.808;2024-03-17T04:28:29;94958.59;;;3.02;94.48
62978;BME280;49073;42.352;23.808;2024-03-17T04:31:29;94962.78;;;3.03;95.57
62978;BME280;49073;42.352;23.808;2024-03-17T04:34:30;94962.25;;;3.15;96.34
62978;BME280;49073;42.352;23.808;2024-03-17T04:37:31;94964.06;;;3.29;94.92
62978;BME280;49073;42.352;23.808;2024-03-17T04:40:41;94969.16;;;3.25;94.25
62978;BME280;49073;42.352;23.808;2024-03-17T04:43:42;94972.63;;;3.12;94.98
62978;BME280;49073;42.352;23.808;2024-03-17T04:46:43;94973.47;;;3.21;94.27
62978;BME280;49073;42.352;23.808;2024-03-17T04:49:44;94978.88;;;3.02;92.97
62978;BME280;49073;42.352;23.808;2024-03-17T04:52:44;94975.50;;;2.87;94.41
62978;BME280;49073;42.352;23.808;2024-03-17T04:55:45;94980.84;;;2.96;95.22
62978;BME280;49073;42.352;23.808;2024-03-17T04:58:46;94982.06;;;3.13;94.90
62978;BME280;49073;42.352;23.808;2024-03-17T05:01:46;94994.16;;;3.14;93.94
62978;BME280;49073;42.352;23.808;2024-03-17T05:04:51;94990.22;;;3.25;93.70
62978;BME280;49073;42.352;23.808;2024-03-17T05:07:52;94993.66;;;3.26;93.36
62978;BME280;49073;42.352;23.808;2024-03-17T05:11:00;94994.13;;;3.28;93.85
62978;BME280;49073;42.352;23.808;2024-03-17T05:14:01;94985.91;;;3.29;94.08
62978;BME280;49073;42.352;23.808;2024-03-17T05:17:01;94990.09;;;3.30;94.60
62978;BME280;49073;42.352;23.808;2024-03-17T05:20:02;94988.19;;;3.45;94.95
62978;BME280;49073;42.352;23.808;2024-03-17T05:23:03;94998.38;;;3.60;94.45
62978;BME280;49073;42.352;23.808;2024-03-17T05:26:04;94996.56;;;3.47;95.48
62978;BME280;49073;42.352;23.808;2024-03-17T05:29:04;95009.06;;;3.55;97.04
62978;BME280;49073;42.352;23.808;2024-03-17T05:32:05;95001.13;;;3.78;98.01
62978;BME280;49073;42.352;23.808;2024-03-17T05:35:06;94995.59;;;3.88;97.97
62978;BME280;49073;42.352;23.808;2024-03-17T05:38:06;95002.97;;;3.77;97.63
62978;BME280;49073;42.352;23.808;2024-03-17T05:41:10;95002.75;;;3.88;97.61
62978;BME280;49073;42.352;23.808;2024-03-17T05:44:12;95004.28;;;3.89;97.93
62978;BME280;49073;42.352;23.808;2024-03-17T05:47:13;95010.56;;;4.02;99.42
62978;BME280;49073;42.352;23.808;2024-03-17T05:50:13;94999.16;;;4.15;99.75
62978;BME280;49073;42.352;23.808;2024-03-17T05:53:14;95012.09;;;4.34;99.54
62978;BME280;49073;42.352;23.808;2024-03-17T05:56:14;95020.09;;;4.52;98.89
62978;BME280;49073;42.352;23.808;2024-03-17T05:59:18;95011.25;;;4.57;98.35
62978;BME280;49073;42.352;23.808;2024-03-17T06:02:19;95018.78;;;4.72;98.71
62978;BME280;49073;42.352;23.808;2024-03-17T06:05:20;95011.44;;;4.69;98.52
62978;BME280;49073;42.352;23.808;2024-03-17T06:08:20;95014.56;;;4.71;98.68
62978;BME280;49073;42.352;23.808;2024-03-17T06:11:21;95021.88;;;4.83;99.38
62978;BME280;49073;42.352;23.808;2024-03-17T06:14:23;95017.88;;;4.86;98.75
62978;BME280;49073;42.352;23.808;2024-03-17T06:17:23;95024.44;;;5.06;98.08
62978;BME280;49073;42.352;23.808;2024-03-17T06:20:25;95012.13;;;5.01;98.21
62978;BME280;49073;42.352;23.808;2024-03-17T06:23:29;95025.38;;;5.10;98.82
62978;BME280;49073;42.352;23.808;2024-03-17T06:26:29;95035.47;;;5.26;98.98
62978;BME280;49073;42.352;23.808;2024-03-17T06:29:35;95031.72;;;5.18;98.07
62978;BME280;49073;42.352;23.808;2024-03-17T06:32:36;95035.47;;;5.17;98.04
62978;BME280;49073;42.352;23.808;2024-03-17T06:35:37;95033.94;;;5.24;98.38
62978;BME280;49073;42.352;23.808;2024-03-17T06:38:37;95033.47;;;5.31;99.01
62978;BME280;49073;42.352;23.808;2024-03-17T06:41:38;95041.88;;;5.51;97.55
62978;BME280;49073;42.352;23.808;2024-03-17T06:44:38;95046.53;;;5.63;97.81
62978;BME280;49073;42.352;23.808;2024-03-17T06:47:40;95047.28;;;5.81;97.96
62978;BME280;49073;42.352;23.808;2024-03-17T06:50:40;95032.50;;;5.89;97.37
62978;BME280;49073;42.352;23.808;2024-03-17T06:53:41;95040.91;;;6.08;96.22
62978;BME280;49073;42.352;23.808;2024-03-17T06:56:41;95037.78;;;6.15;94.81
62978;BME280;49073;42.352;23.808;2024-03-17T06:59:41;95044.16;;;6.14;94.79
62978;BME280;49073;42.352;23.808;2024-03-17T07:02:43;95046.75;;;6.32;96.42
62978;BME280;49073;42.352;23.808;2024-03-17T07:05:54;95043.28;;;6.49;94.88
62978;BME280;49073;42.352;23.808;2024-03-17T07:08:54;95043.38;;;6.70;94.17
62978;BME280;49073;42.352;23.808;2024-03-17T07:11:55;95054.69;;;6.79;94.28
62978;BME280;49073;42.352;23.808;2024-03-17T07:14:56;95046.94;;;6.74;93.77
62978;BME280;49073;42.352;23.808;2024-03-17T07:17:56;95048.72;;;6.91;92.85
62978;BME280;49073;42.352;23.808;2024-03-17T07:21:02;95044.63;;;6.94;92.97
62978;BME280;49073;42.352;23.808;2024-03-17T07:24:05;95050.13;;;7.19;91.81
62978;BME280;49073;42.352;23.808;2024-03-17T07:27:06;95039.69;;;7.35;91.21
62978;BME280;49073;42.352;23.808;2024-03-17T07:30:13;95036.25;;;7.43;90.62
62978;BME280;49073;42.352;23.808;2024-03-17T07:33:14;95035.31;;;7.60;91.07
62978;BME280;49073;42.352;23.808;2024-03-17T07:36:15;95028.66;;;7.54;89.92
62978;BME280;49073;42.352;23.808;2024-03-17T07:39:15;95033.25;;;7.66;88.42
62978;BME280;49073;42.352;23.808;2024-03-17T07:42:16;95027.47;;;7.85;89.20
62978;BME280;49073;42.352;23.808;2024-03-17T07:45:17;95025.53;;;8.07;89.18
62978;BME280;49073;42.352;23.808;2024-03-17T07:48:17;95023.47;;;8.12;87.69
62978;BME280;49073;42.352;23.808;2024-03-17T07:51:18;95022.38;;;8.26;87.06
62978;BME280;49073;42.352;23.808;2024-03-17T07:54:18;95014.22;;;8.43;86.16
62978;BME280;49073;42.352;23.808;2024-03-17T07:57:19;95010.06;;;8.67;84.51
62978;BME280;49073;42.352;23.808;2024-03-17T08:00:20;95018.81;;;8.93;83.63
62978;BME280;49073;42.352;23.808;2024-03-17T08:03:22;95011.13;;;9.03;83.69
62978;BME280;49073;42.352;23.808;2024-03-17T08:06:22;94997.59;;;9.09;79.35
62978;BME280;49073;42.352;23.808;2024-03-17T08:09:23;95002.88;;;9.34;80.21
62978;BME280;49073;42.352;23.808;2024-03-17T08:12:24;94997.34;;;9.39;78.64
62978;BME280;49073;42.352;23.808;2024-03-17T08:15:24;94997.59;;;9.62;79.37
62978;BME280;49073;42.352;23.808;2024-03-17T08:18:25;94997.00;;;9.69;78.45
62978;BME280;49073;42.352;23.808;2024-03-17T08:21:27;94992.66;;;9.77;76.73
62978;BME280;49073;42.352;23.808;2024-03-17T08:24:30;94994.53;;;10.21;77.60
62978;BME280;49073;42.352;23.808;2024-03-17T08:27:30;94986.03;;;10.31;76.04
62978;BME280;49073;42.352;23.808;2024-03-17T08:30:31;94988.88;;;10.38;76.14
62978;BME280;49073;42.352;23.808;2024-03-17T08:33:32;94985.28;;;10.46;74.05
62978;BME280;49073;42.352;23.808;2024-03-17T08:36:33;94986.41;;;10.61;71.98
62978;BME280;49073;42.352;23.808;2024-03-17T08:39:34;94988.19;;;10.73;71.45
62978;BME280;49073;42.352;23.808;2024-03-17T08:42:34;94980.72;;;10.79;71.35
62978;BME280;49073;42.352;23.808;2024-03-17T08:45:35;94975.09;;;11.00;69.19
62978;BME280;49073;42.352;23.808;2024-03-17T08:48:38;94966.25;;;10.80;67.58
62978;BME280;49073;42.352;23.808;2024-03-17T08:51:39;94972.69;;;10.95;67.11
62978;BME280;49073;42.352;23.808;2024-03-17T08:54:39;94957.75;;;11.10;67.54
62978;BME280;49073;42.352;23.808;2024-03-17T08:57:40;94967.53;;;11.22;67.43
62978;BME280;49073;42.352;23.808;2024-03-17T09:00:41;94955.25;;;11.37;64.89
62978;BME280;49073;42.352;23.808;2024-03-17T09:03:42;94954.41;;;11.53;65.24
62978;BME280;49073;42.352;23.808;2024-03-17T09:06:43;94953.66;;;11.75;64.34
62978;BME280;49073;42.352;23.808;2024-03-17T09:09:46;94952.09;;;12.14;63.60
62978;BME280;49073;42.352;23.808;2024-03-17T09:12:47;94953.50;;;12.54;62.25
62978;BME280;49073;42.352;23.808;2024-03-17T09:18:52;94934.69;;;12.47;44.84
62978;BME280;49073;42.352;23.808;2024-03-17T09:21:53;94948.19;;;12.58;44.86
62978;BME280;49073;42.352;23.808;2024-03-17T09:24:54;94952.78;;;12.57;46.28
62978;BME280;49073;42.352;23.808;2024-03-17T09:27:54;94941.94;;;12.73;45.42
62978;BME280;49073;42.352;23.808;2024-03-17T09:30:56;94942.69;;;12.74;48.39
62978;BME280;49073;42.352;23.808;2024-03-17T09:33:57;94950.88;;;12.58;45.67
62978;BME280;49073;42.352;23.808;2024-03-17T09:36:57;94950.03;;;12.54;48.72
62978;BME280;49073;42.352;23.808;2024-03-17T09:39:59;94941.78;;;12.62;47.50
62978;BME280;49073;42.352;23.808;2024-03-17T09:43:00;94931.69;;;12.79;49.16
62978;BME280;49073;42.352;23.808;2024-03-17T09:46:05;94925.22;;;13.10;45.46
62978;BME280;49073;42.352;23.808;2024-03-17T09:49:14;94938.28;;;13.16;45.30
62978;BME280;49073;42.352;23.808;2024-03-17T09:52:23;94938.75;;;13.21;45.82
62978;BME280;49073;42.352;23.808;2024-03-17T09:55:25;94928.28;;;13.09;44.23
62978;BME280;49073;42.352;23.808;2024-03-17T09:58:26;94937.75;;;13.33;45.82
62978;BME280;49073;42.352;23.808;2024-03-17T10:01:27;94928.50;;;13.58;43.87
62978;BME280;49073;42.352;23.808;2024-03-17T10:04:33;94934.06;;;13.79;41.26
62978;BME280;49073;42.352;23.808;2024-03-17T10:07:38;94933.06;;;13.95;42.52
62978;BME280;49073;42.352;23.808;2024-03-17T10:10:39;94932.47;;;13.71;41.67
62978;BME280;49073;42.352;23.808;2024-03-17T10:13:39;94930.25;;;13.43;41.96
62978;BME280;49073;42.352;23.808;2024-03-17T10:16:40;94924.72;;;13.32;41.99
62978;BME280;49073;42.352;23.808;2024-03-17T10:19:41;94928.13;;;13.29;42.62
62978;BME280;49073;42.352;23.808;2024-03-17T10:23:01;94937.28;;;13.58;42.01
62978;BME280;49073;42.352;23.808;2024-03-17T10:26:01;94923.28;;;13.38;42.25
62978;BME280;49073;42.352;23.808;2024-03-17T10:29:02;94929.59;;;12.92;42.95
62978;BME280;49073;42.352;23.808;2024-03-17T10:32:13;94929.34;;;13.04;44.07
62978;BME280;49073;42.352;23.808;2024-03-17T10:35:47;94920.06;;;13.56;43.66
62978;BME280;49073;42.352;23.808;2024-03-17T10:38:53;94920.13;;;14.04;42.68
62978;BME280;49073;42.352;23.808;2024-03-17T10:42:05;94915.66;;;14.16;41.06
62978;BME280;49073;42.352;23.808;2024-03-17T10:45:08;94924.41;;;14.13;41.25
62978;BME280;49073;42.352;23.808;2024-03-17T10:48:15;94901.78;;;14.03;41.79
62978;BME280;49073;42.352;23.808;2024-03-17T10:51:19;94914.81;;;14.08;41.86
62978;BME280;49073;42.352;23.808;2024-03-17T10:54:24;94911.03;;;14.13;42.67
62978;BME280;49073;42.352;23.808;2024-03-17T10:57:38;94913.94;;;14.42;43.39
62978;BME280;49073;42.352;23.808;2024-03-17T11:00:42;94897.50;;;14.47;42.00
62978;BME280;49073;42.352;23.808;2024-03-17T11:03:42;94894.44;;;14.45;43.10
62978;BME280;49073;42.352;23.808;2024-03-17T11:06:44;94901.91;;;14.21;42.73
62978;BME280;49073;42.352;23.808;2024-03-17T11:09:47;94902.91;;;14.02;42.95
62978;BME280;49073;42.352;23.808;2024-03-17T11:12:56;94894.69;;;13.84;43.83
62978;BME280;49073;42.352;23.808;2024-03-17T11:15:57;94896.84;;;13.67;44.48
62978;BME280;49073;42.352;23.808;2024-03-17T11:19:06;94901.13;;;13.41;44.45
62978;BME280;49073;42.352;23.808;2024-03-17T11:31:44;94894.09;;;13.60;44.62
62978;BME280;49073;42.352;23.808;2024-03-17T11:34:46;94888.88;;;13.40;45.63
62978;BME280;49073;42.352;23.808;2024-03-17T11:37:47;94888.03;;;13.32;45.15
62978;BME280;49073;42.352;23.808;2024-03-17T11:40:51;94884.97;;;13.30;45.80
62978;BME280;49073;42.352;23.808;2024-03-17T11:47:21;94893.94;;;13.15;45.14
62978;BME280;49073;42.352;23.808;2024-03-17T11:50:21;94884.28;;;13.06;45.17
62978;BME280;49073;42.352;23.808;2024-03-17T11:53:22;94884.34;;;13.10;45.35
62978;BME280;49073;42.352;23.808;2024-03-17T11:56:26;94884.03;;;13.15;45.47
62978;BME280;49073;42.352;23.808;2024-03-17T11:59:28;94874.44;;;13.14;45.86
62978;BME280;49073;42.352;23.808;2024-03-17T12:02:30;94877.84;;;13.11;46.41
62978;BME280;49073;42.352;23.808;2024-03-17T12:05:31;94873.00;;;13.20;46.42
62978;BME280;49073;42.352;23.808;2024-03-17T12:08:32;94878.47;;;13.31;45.82
62978;BME280;49073;42.352;23.808;2024-03-17T12:11:34;94875.22;;;13.15;45.44
62978;BME280;49073;42.352;23.808;2024-03-17T12:14:35;94869.09;;;13.14;46.54
62978;BME280;49073;42.352;23.808;2024-03-17T12:17:36;94872.25;;;13.23;46.36
62978;BME280;49073;42.352;23.808;2024-03-17T12:20:37;94867.63;;;13.20;46.43
62978;BME280;49073;42.352;23.808;2024-03-17T12:23:39;94866.53;;;13.25;47.69
62978;BME280;49073;42.352;23.808;2024-03-17T12:26:40;94863.38;;;13.16;47.08
62978;BME280;49073;42.352;23.808;2024-03-17T12:29:40;94862.56;;;13.12;46.02
62978;BME280;49073;42.352;23.808;2024-03-17T12:32:41;94868.22;;;13.03;48.08
62978;BME280;49073;42.352;23.808;2024-03-17T12:35:42;94868.53;;;12.98;48.51
62978;BME280;49073;42.352;23.808;2024-03-17T12:38:42;94862.03;;;12.99;48.72
62978;BME280;49073;42.352;23.808;2024-03-17T12:41:43;94872.84;;;13.09;50.08
62978;BME280;49073;42.352;23.808;2024-03-17T12:44:51;94862.53;;;13.08;49.88
62978;BME280;49073;42.352;23.808;2024-03-17T12:47:52;94864.81;;;13.06;49.53
62978;BME280;49073;42.352;23.808;2024-03-17T12:50:56;94864.31;;;12.97;50.49
62978;BME280;49073;42.352;23.808;2024-03-17T12:54:13;94858.75;;;12.82;51.20
62978;BME280;49073;42.352;23.808;2024-03-17T12:57:14;94855.28;;;12.78;50.10
62978;BME280;49073;42.352;23.808;2024-03-17T13:00:33;94858.81;;;12.86;50.65
62978;BME280;49073;42.352;23.808;2024-03-17T13:03:37;94850.81;;;12.89;51.85
62978;BME280;49073;42.352;23.808;2024-03-17T13:06:40;94850.81;;;12.86;50.15
62978;BME280;49073;42.352;23.808;2024-03-17T13:09:40;94834.66;;;12.78;49.90
62978;BME280;49073;42.352;23.808;2024-03-17T13:12:41;94842.00;;;12.85;51.02
62978;BME280;49073;42.352;23.808;2024-03-17T13:15:42;94836.53;;;13.08;49.70
62978;BME280;49073;42.352;23.808;2024-03-17T13:18:45;94833.88;;;13.43;48.58
62978;BME280;49073;42.352;23.808;2024-03-17T13:21:45;94832.88;;;13.24;48.81
62978;BME280;49073;42.352;23.808;2024-03-17T13:24:46;94829.78;;;13.18;49.43
62978;BME280;49073;42.352;23.808;2024-03-17T13:27:48;94831.38;;;13.27;48.63
62978;BME280;49073;42.352;23.808;2024-03-17T13:30:49;94824.56;;;13.33;49.71
62978;BME280;49073;42.352;23.808;2024-03-17T13:33:49;94830.31;;;13.35;48.23
62978;BME280;49073;42.352;23.808;2024-03-17T13:36:53;94826.91;;;13.38;48.70
62978;BME280;49073;42.352;23.808;2024-03-17T13:39:54;94824.97;;;13.35;48.46
62978;BME280;49073;42.352;23.808;2024-03-17T13:42:55;94822.16;;;13.24;48.10
62978;BME280;49073;42.352;23.808;2024-03-17T13:45:56;94819.81;;;13.19;47.93
62978;BME280;49073;42.352;23.808;2024-03-17T13:49:07;94814.81;;;13.14;47.92
62978;BME280;49073;42.352;23.808;2024-03-17T13:52:09;94824.00;;;13.16;47.72
62978;BME280;49073;42.352;23.808;2024-03-17T13:55:16;94817.41;;;13.06;48.22
62978;BME280;49073;42.352;23.808;2024-03-17T13:58:17;94814.66;;;12.99;47.48
62978;BME280;49073;42.352;23.808;2024-03-17T14:01:18;94810.69;;;12.86;48.64
62978;BME280;49073;42.352;23.808;2024-03-17T14:04:19;94814.25;;;12.97;48.74
62978;BME280;49073;42.352;23.808;2024-03-17T14:07:20;94818.72;;;12.89;49.39
62978;BME280;49073;42.352;23.808;2024-03-17T14:10:22;94812.34;;;12.98;49.21
62978;BME280;49073;42.352;23.808;2024-03-17T14:13:23;94811.28;;;13.06;50.08
62978;BME280;49073;42.352;23.808;2024-03-17T14:16:23;94813.13;;;12.98;49.39
62978;BME280;49073;42.352;23.808;2024-03-17T14:19:27;94802.69;;;12.89;50.75
62978;BME280;49073;42.352;23.808;2024-03-17T14:22:27;94804.13;;;12.79;49.88
62978;BME280;49073;42.352;23.808;2024-03-17T14:25:28;94811.34;;;12.79;50.32
62978;BME280;49073;42.352;23.808;2024-03-17T14:28:29;94811.75;;;12.81;50.35
62978;BME280;49073;42.352;23.808;2024-03-17T14:31:33;94806.66;;;12.69;50.20
62978;BME280;49073;42.352;23.808;2024-03-17T14:34:37;94798.53;;;12.61;50.04
62978;BME280;49073;42.352;23.808;2024-03-17T14:37:38;94791.84;;;12.44;50.08
62978;BME280;49073;42.352;23.808;2024-03-17T14:40:39;94805.19;;;12.44;49.84
62978;BME280;49073;42.352;23.808;2024-03-17T14:43:39;94799.84;;;12.44;50.35
62978;BME280;49073;42.352;23.808;2024-03-17T14:46:40;94804.03;;;12.42;50.33
62978;BME280;49073;42.352;23.808;2024-03-17T14:49:41;94802.25;;;12.53;51.25
62978;BME280;49073;42.352;23.808;2024-03-17T14:52:43;94803.09;;;12.61;50.81
62978;BME280;49073;42.352;23.808;2024-03-17T14:55:43;94794.69;;;12.59;50.74
62978;BME280;49073;42.352;23.808;2024-03-17T14:58:44;94796.22;;;12.60;51.41
62978;BME280;49073;42.352;23.808;2024-03-17T15:01:46;94796.28;;;12.63;51.24
62978;BME280;49073;42.352;23.808;2024-03-17T15:04:50;94793.19;;;12.61;50.70
62978;BME280;49073;42.352;23.808;2024-03-17T15:07:52;94788.59;;;12.62;51.36
62978;BME280;49073;42.352;23.808;2024-03-17T15:10:53;94788.66;;;12.65;53.31
62978;BME280;49073;42.352;23.808;2024-03-17T15:13:54;94787.06;;;12.61;53.30
62978;BME280;49073;42.352;23.808;2024-03-17T15:16:55;94786.97;;;12.50;54.29
62978;BME280;49073;42.352;23.808;2024-03-17T15:19:55;94786.91;;;12.46;54.62
62978;BME280;49073;42.352;23.808;2024-03-17T15:22:56;94786.06;;;12.39;54.72
62978;BME280;49073;42.352;23.808;2024-03-17T15:26:01;94786.75;;;12.35;54.46
62978;BME280;49073;42.352;23.808;2024-03-17T15:29:06;94790.53;;;12.31;55.66
62978;BME280;49073;42.352;23.808;2024-03-17T15:32:07;94798.78;;;12.22;57.01
62978;BME280;49073;42.352;23.808;2024-03-17T15:35:08;94795.66;;;12.16;58.37
62978;BME280;49073;42.352;23.808;2024-03-17T15:38:08;94791.63;;;12.03;58.38
62978;BME280;49073;42.352;23.808;2024-03-17T15:41:10;94801.56;;;12.02;57.99
62978;BME280;49073;42.352;23.808;2024-03-17T15:44:11;94799.09;;;11.93;58.09
62978;BME280;49073;42.352;23.808;2024-03-17T15:47:11;94805.94;;;11.91;58.47
62978;BME280;49073;42.352;23.808;2024-03-17T15:50:13;94808.56;;;11.87;58.29
62978;BME280;49073;42.352;23.808;2024-03-17T15:53:17;94814.25;;;11.86;57.61
62978;BME280;49073;42.352;23.808;2024-03-17T15:56:18;94800.09;;;11.82;58.13
62978;BME280;49073;42.352;23.808;2024-03-17T15:59:19;94810.41;;;11.83;57.85
62978;BME280;49073;42.352;23.808;2024-03-17T16:02:22;94820.25;;;11.79;58.38
62978;BME280;49073;42.352;23.808;2024-03-17T16:05:23;94807.25;;;11.77;58.49
62978;BME280;49073;42.352;23.808;2024-03-17T16:08:24;94809.47;;;11.72;58.13
62978;BME280;49073;42.352;23.808;2024-03-17T16:11:27;94819.72;;;11.70;57.96
62978;BME280;49073;42.352;23.808;2024-03-17T16:14:28;94811.66;;;11.66;57.96